Главная страница
METAR-TAF:

METAR-TAF

Аэропорты :

Наусори

Сува, Фиджи

широта: 18-03S, долгота: 178-34E, высота над уровнем моря: 5 м

Текущие метеонаблюдения

Эта сводка был подготовлена 37 минут назад, в 03:00 UTC
Ветер 5 Узел от восточно-северо-восточный
Температура 27°C
Влажность 66%
Давление 1015 hPa
Видимость 10 км и более
Отдельные облака на высоте 2000 фута
Отдельные облака на высоте 30000 фута

METAR: NFNA 240300Z 07005KT 9999 SCT020 SCT300 27/20 Q1015

Время: 15:37 (03:37 UTC)

Прогноз

Эта сводка был подготовлена 4 часа и 36 минут назад, в 23:01 UTC
Прогноз действительный с 24-го 00 UTC до 24-го 24 UTC
Ветер 10 Узел от восточный
Видимость 10 км и более
Отдельные облака на высоте 2000 фута
Рассеянная облачность на высоте 4500 фута

TAF: NFNA 232301Z 2400/2424 08010KT 9999 SCT020 BKN045

Метеонаблюдения и прогнозы для более 4000 аэропортов (сводки METAR и TAF).

Имеющиеся станции представлены на карте желтыми и красными точками.

Чтобы увидеть название станции, наведите на нее мышь.

Затем щелкните, чтобы увидеть метеонаблюдения и метеопрогнозы.

Управление картой: чтобы увеличить масштаб, щелкните зеленые кнопки с черным крестиком; чтобы уменьшить масштаб, щелкните зеленую кнопку с тире; для просмотра соседних карт щелкайте зеленые стрелки.


METAR-TAF: